Cyrus, MN (56323)

5:48 PM CST on February 06, 2016 (GMT -0600)
PrecisionAg360.com | | Change Station
CLOSE
Current Station
Personal Weather Station
Location: Hancock, MN
Elevation: 1148 ft
Nearby Weather Stations
Active Advisory: Blizzard Watch

Elev 1148 ft 45.53 °N, 95.79 °W | Updated 3 minutes ago

Mostly Cloudy
Mostly Cloudy
34.7 °F
Feels Like 35 °F
N
0.0
Wind Variable Wind from West
Gusts 5.0 mph

Today
High -- | Low -- °F
--% Chance of Precip.
Yesterday
High -- | Low -- °F
Precip. -- in
Pressure 29.74 in
Visibility 10.0 miles
Clouds Scattered Clouds 3200 ft
Mostly Cloudy 4200 ft
Overcast 4800 ft
Windchill 35 °F
Dew Point 32 °F
Humidity 90%
Rainfall 0.02 in
Snow Depth Not available.
7:38 AM 5:36 PM
Waning Crescent, 3% visible
METAR KMOX 062334Z AUTO 22012KT 10SM -RA SCT032 BKN042 OVC048 02/M01 A2974 RMK AO2 P0001
Pressure 29.74 in
Visibility 10.0 miles
Clouds Scattered Clouds 3200 ft
Mostly Cloudy 4200 ft
Overcast 4800 ft
Windchill 35 °F
Dew Point 32 °F
Humidity 90%
Rainfall 0.02 in
Snow Depth Not available.
7:38 AM 5:36 PM
Waning Crescent, 3% visible
METAR KMOX 062334Z AUTO 22012KT 10SM -RA SCT032 BKN042 OVC048 02/M01 A2974 RMK AO2 P0001

10-Day Weather Forecast

Almanac

Astronomy

Feb. 06, 2016 Rise Set
Actual Time
Civil Twilight
Nautical Twilight
Astronomical Twilight
Moon
Length of Visible Light
Length of Day
Tomorrow will be .
, % of the Moon is Illuminated

Today's Extremes

State Highs State Lows

Community

WunderPhotos

Upload Photos

1,891,098 photos uploaded!

WunderBlog® & News

Nearby

Air Quality

  Air Quality AQ Index Pollutant
Not available.

Snow Depth

Station Depth Elevation

Earthquake Activity

City Distance Mag. Time & Date
Minimum magnitude displayed is 2.5.

Coastal Water Temperatures

Place Temperature

Stations

Nearby Weather Stations

Station Location Temp. Windchill Dew Point Humidity Wind Precip. Elev Updated Type
                   

Watches & Warnings

Blizzard Watch
Issued: 3:09 PM CST Feb. 6, 2016 – National Weather Service

... Blizzard watch remains in effect from Sunday afternoon through
Monday morning...

A blizzard watch remains in effect from Sunday afternoon through
Monday morning.

* Blizzard conditions are possible from Sunday afternoon through
Monday morning.

* Winds gusting as high as 45 mph could cause whiteout
conditions in blowing snow. Significant drifting of the snow
is likely.

* Total snow accumulations of up to 1 inch are possible.

* Travel could be very difficult to impossible.

Precautionary/preparedness actions...

A blizzard watch means there is a potential for falling and/or
blowing snow with strong winds and extremely poor visibilities.
This can lead to whiteout conditions and make travel very
dangerous.